sensor_id;sensor_type;location;lat;lon;timestamp;P1;durP1;ratioP1;P2;durP2;ratioP2
25525;SDS011;13424;48.424;11.258;2023-09-18T00:01:03;12.75;;;10.98;;
25525;SDS011;13424;48.424;11.258;2023-09-18T00:03:33;12.80;;;11.35;;
25525;SDS011;13424;48.424;11.258;2023-09-18T00:05:59;12.80;;;11.50;;
25525;SDS011;13424;48.424;11.258;2023-09-18T00:08:25;14.32;;;11.40;;
25525;SDS011;13424;48.424;11.258;2023-09-18T00:10:53;16.60;;;10.70;;
25525;SDS011;13424;48.424;11.258;2023-09-18T00:13:21;14.80;;;11.68;;
25525;SDS011;13424;48.424;11.258;2023-09-18T00:15:47;14.57;;;11.40;;
25525;SDS011;13424;48.424;11.258;2023-09-18T00:18:15;13.77;;;11.18;;
25525;SDS011;13424;48.424;11.258;2023-09-18T00:20:41;14.57;;;11.75;;
25525;SDS011;13424;48.424;11.258;2023-09-18T00:23:08;13.70;;;12.27;;
25525;SDS011;13424;48.424;11.258;2023-09-18T00:25:35;12.27;;;11.00;;
25525;SDS011;13424;48.424;11.258;2023-09-18T00:28:02;11.95;;;10.13;;
25525;SDS011;13424;48.424;11.258;2023-09-18T00:30:28;12.85;;;11.52;;
25525;SDS011;13424;48.424;11.258;2023-09-18T00:32:54;14.15;;;10.95;;
25525;SDS011;13424;48.424;11.258;2023-09-18T00:35:20;11.90;;;10.50;;
25525;SDS011;13424;48.424;11.258;2023-09-18T00:37:48;13.40;;;12.00;;
25525;SDS011;13424;48.424;11.258;2023-09-18T00:40:14;12.68;;;10.70;;
25525;SDS011;13424;48.424;11.258;2023-09-18T00:42:41;11.73;;;10.43;;
25525;SDS011;13424;48.424;11.258;2023-09-18T00:45:07;13.38;;;10.07;;
25525;SDS011;13424;48.424;11.258;2023-09-18T00:47:34;13.52;;;10.43;;
25525;SDS011;13424;48.424;11.258;2023-09-18T00:50:04;14.32;;;10.98;;
25525;SDS011;13424;48.424;11.258;2023-09-18T00:52:33;12.65;;;10.98;;
25525;SDS011;13424;48.424;11.258;2023-09-18T00:58:18;15.32;;;11.95;;
25525;SDS011;13424;48.424;11.258;2023-09-18T01:04:00;16.38;;;11.45;;
25525;SDS011;13424;48.424;11.258;2023-09-18T01:06:27;14.60;;;11.68;;
25525;SDS011;13424;48.424;11.258;2023-09-18T01:08:56;15.38;;;12.40;;
25525;SDS011;13424;48.424;11.258;2023-09-18T01:11:40;16.48;;;12.32;;
25525;SDS011;13424;48.424;11.258;2023-09-18T01:17:44;14.23;;;11.82;;
25525;SDS011;13424;48.424;11.258;2023-09-18T01:20:11;16.30;;;12.07;;
25525;SDS011;13424;48.424;11.258;2023-09-18T01:22:38;15.07;;;11.63;;
25525;SDS011;13424;48.424;11.258;2023-09-18T01:25:04;13.77;;;12.23;;
25525;SDS011;13424;48.424;11.258;2023-09-18T01:27:33;18.88;;;12.70;;
25525;SDS011;13424;48.424;11.258;2023-09-18T01:29:59;14.13;;;12.00;;
25525;SDS011;13424;48.424;11.258;2023-09-18T01:32:26;14.70;;;12.65;;
25525;SDS011;13424;48.424;11.258;2023-09-18T01:38:35;15.65;;;12.82;;
25525;SDS011;13424;48.424;11.258;2023-09-18T01:41:03;15.68;;;12.80;;
25525;SDS011;13424;48.424;11.258;2023-09-18T01:43:29;13.13;;;10.68;;
25525;SDS011;13424;48.424;11.258;2023-09-18T01:49:28;13.15;;;11.25;;
25525;SDS011;13424;48.424;11.258;2023-09-18T01:52:14;14.98;;;10.50;;
25525;SDS011;13424;48.424;11.258;2023-09-18T01:54:41;14.00;;;11.20;;
25525;SDS011;13424;48.424;11.258;2023-09-18T01:57:07;15.55;;;11.00;;
25525;SDS011;13424;48.424;11.258;2023-09-18T01:59:34;13.50;;;11.23;;
25525;SDS011;13424;48.424;11.258;2023-09-18T02:02:01;11.60;;;9.73;;
25525;SDS011;13424;48.424;11.258;2023-09-18T02:04:32;13.45;;;10.70;;
25525;SDS011;13424;48.424;11.258;2023-09-18T02:06:59;12.20;;;10.88;;
25525;SDS011;13424;48.424;11.258;2023-09-18T02:09:24;16.38;;;11.68;;
25525;SDS011;13424;48.424;11.258;2023-09-18T02:11:50;11.75;;;10.55;;
25525;SDS011;13424;48.424;11.258;2023-09-18T02:14:22;14.98;;;11.63;;
25525;SDS011;13424;48.424;11.258;2023-09-18T02:16:48;15.30;;;11.07;;
25525;SDS011;13424;48.424;11.258;2023-09-18T02:19:15;14.27;;;11.63;;
25525;SDS011;13424;48.424;11.258;2023-09-18T02:21:45;13.18;;;10.85;;
25525;SDS011;13424;48.424;11.258;2023-09-18T02:24:11;12.48;;;11.07;;
25525;SDS011;13424;48.424;11.258;2023-09-18T02:26:37;13.45;;;11.02;;
25525;SDS011;13424;48.424;11.258;2023-09-18T02:29:07;14.43;;;11.13;;
25525;SDS011;13424;48.424;11.258;2023-09-18T02:31:38;13.35;;;10.55;;
25525;SDS011;13424;48.424;11.258;2023-09-18T02:34:04;12.23;;;9.38;;
25525;SDS011;13424;48.424;11.258;2023-09-18T02:36:31;13.30;;;9.93;;
25525;SDS011;13424;48.424;11.258;2023-09-18T02:38:57;13.05;;;10.35;;
25525;SDS011;13424;48.424;11.258;2023-09-18T02:41:24;13.18;;;10.32;;
25525;SDS011;13424;48.424;11.258;2023-09-18T02:43:50;12.35;;;10.20;;
25525;SDS011;13424;48.424;11.258;2023-09-18T02:46:16;13.35;;;10.90;;
25525;SDS011;13424;48.424;11.258;2023-09-18T02:48:42;12.18;;;9.77;;
25525;SDS011;13424;48.424;11.258;2023-09-18T02:51:08;14.38;;;10.75;;
25525;SDS011;13424;48.424;11.258;2023-09-18T02:53:35;12.43;;;9.60;;
25525;SDS011;13424;48.424;11.258;2023-09-18T02:56:01;10.90;;;9.10;;
25525;SDS011;13424;48.424;11.258;2023-09-18T02:58:27;13.93;;;9.90;;
25525;SDS011;13424;48.424;11.258;2023-09-18T03:00:56;12.30;;;9.27;;
25525;SDS011;13424;48.424;11.258;2023-09-18T03:03:24;13.38;;;9.82;;
25525;SDS011;13424;48.424;11.258;2023-09-18T03:05:52;14.35;;;8.88;;
25525;SDS011;13424;48.424;11.258;2023-09-18T03:08:27;18.63;;;11.27;;
25525;SDS011;13424;48.424;11.258;2023-09-18T03:10:54;12.15;;;9.00;;
25525;SDS011;13424;48.424;11.258;2023-09-18T03:13:22;13.43;;;9.00;;
25525;SDS011;13424;48.424;11.258;2023-09-18T03:15:48;13.70;;;10.35;;
25525;SDS011;13424;48.424;11.258;2023-09-18T03:18:14;12.63;;;10.68;;
25525;SDS011;13424;48.424;11.258;2023-09-18T03:20:41;11.73;;;9.50;;
25525;SDS011;13424;48.424;11.258;2023-09-18T03:23:08;15.27;;;9.70;;
25525;SDS011;13424;48.424;11.258;2023-09-18T03:29:36;15.80;;;9.98;;
25525;SDS011;13424;48.424;11.258;2023-09-18T03:32:02;13.30;;;10.45;;
25525;SDS011;13424;48.424;11.258;2023-09-18T03:34:28;13.52;;;9.20;;
25525;SDS011;13424;48.424;11.258;2023-09-18T03:36:54;11.93;;;8.90;;
25525;SDS011;13424;48.424;11.258;2023-09-18T03:39:21;11.40;;;9.32;;
25525;SDS011;13424;48.424;11.258;2023-09-18T03:41:47;12.30;;;9.80;;
25525;SDS011;13424;48.424;11.258;2023-09-18T03:44:13;15.70;;;9.93;;
25525;SDS011;13424;48.424;11.258;2023-09-18T03:46:41;11.80;;;9.65;;
25525;SDS011;13424;48.424;11.258;2023-09-18T03:49:07;15.38;;;9.48;;
25525;SDS011;13424;48.424;11.258;2023-09-18T03:51:45;11.65;;;9.25;;
25525;SDS011;13424;48.424;11.258;2023-09-18T03:54:11;10.82;;;9.43;;
25525;SDS011;13424;48.424;11.258;2023-09-18T03:56:37;9.63;;;8.43;;
25525;SDS011;13424;48.424;11.258;2023-09-18T03:59:03;12.38;;;8.73;;
25525;SDS011;13424;48.424;11.258;2023-09-18T04:01:30;9.98;;;8.93;;
25525;SDS011;13424;48.424;11.258;2023-09-18T04:03:57;12.35;;;8.90;;
25525;SDS011;13424;48.424;11.258;2023-09-18T04:06:23;14.73;;;10.20;;
25525;SDS011;13424;48.424;11.258;2023-09-18T04:08:51;11.50;;;9.93;;
25525;SDS011;13424;48.424;11.258;2023-09-18T04:11:17;14.65;;;9.82;;
25525;SDS011;13424;48.424;11.258;2023-09-18T04:13:51;12.50;;;10.23;;
25525;SDS011;13424;48.424;11.258;2023-09-18T04:16:17;12.60;;;11.30;;
25525;SDS011;13424;48.424;11.258;2023-09-18T04:18:43;12.48;;;11.18;;
25525;SDS011;13424;48.424;11.258;2023-09-18T04:21:10;13.73;;;11.75;;
25525;SDS011;13424;48.424;11.258;2023-09-18T04:23:36;15.77;;;11.02;;
25525;SDS011;13424;48.424;11.258;2023-09-18T04:26:02;12.07;;;10.85;;
25525;SDS011;13424;48.424;11.258;2023-09-18T04:28:28;12.55;;;11.02;;
25525;SDS011;13424;48.424;11.258;2023-09-18T04:30:55;12.32;;;10.75;;
25525;SDS011;13424;48.424;11.258;2023-09-18T04:33:23;13.40;;;10.32;;
25525;SDS011;13424;48.424;11.258;2023-09-18T04:35:50;12.75;;;10.52;;
25525;SDS011;13424;48.424;11.258;2023-09-18T04:38:17;16.45;;;11.60;;
25525;SDS011;13424;48.424;11.258;2023-09-18T04:40:46;14.07;;;11.35;;
25525;SDS011;13424;48.424;11.258;2023-09-18T04:43:13;17.95;;;11.45;;
25525;SDS011;13424;48.424;11.258;2023-09-18T04:45:39;14.20;;;11.55;;
25525;SDS011;13424;48.424;11.258;2023-09-18T04:48:06;14.68;;;11.57;;
25525;SDS011;13424;48.424;11.258;2023-09-18T04:50:33;14.93;;;12.20;;
25525;SDS011;13424;48.424;11.258;2023-09-18T04:52:59;13.15;;;11.63;;
25525;SDS011;13424;48.424;11.258;2023-09-18T04:55:26;13.32;;;11.77;;
25525;SDS011;13424;48.424;11.258;2023-09-18T04:57:52;14.35;;;12.15;;
25525;SDS011;13424;48.424;11.258;2023-09-18T05:00:18;15.50;;;11.75;;
25525;SDS011;13424;48.424;11.258;2023-09-18T05:02:48;19.30;;;12.55;;
25525;SDS011;13424;48.424;11.258;2023-09-18T05:09:40;16.23;;;13.05;;
25525;SDS011;13424;48.424;11.258;2023-09-18T05:12:06;15.70;;;12.40;;
25525;SDS011;13424;48.424;11.258;2023-09-18T05:14:39;16.90;;;12.75;;
25525;SDS011;13424;48.424;11.258;2023-09-18T05:17:08;14.45;;;12.85;;
25525;SDS011;13424;48.424;11.258;2023-09-18T05:19:37;18.65;;;13.32;;
25525;SDS011;13424;48.424;11.258;2023-09-18T05:22:03;15.77;;;13.43;;
25525;SDS011;13424;48.424;11.258;2023-09-18T05:24:30;20.55;;;14.90;;
25525;SDS011;13424;48.424;11.258;2023-09-18T05:26:58;19.85;;;14.27;;
25525;SDS011;13424;48.424;11.258;2023-09-18T05:29:24;15.93;;;13.57;;
25525;SDS011;13424;48.424;11.258;2023-09-18T05:31:50;20.08;;;15.02;;
25525;SDS011;13424;48.424;11.258;2023-09-18T05:34:16;18.15;;;15.50;;
25525;SDS011;13424;48.424;11.258;2023-09-18T05:36:42;21.05;;;16.95;;
25525;SDS011;13424;48.424;11.258;2023-09-18T05:39:08;16.67;;;14.18;;
25525;SDS011;13424;48.424;11.258;2023-09-18T05:41:37;17.92;;;13.73;;
25525;SDS011;13424;48.424;11.258;2023-09-18T05:44:03;14.32;;;12.82;;
25525;SDS011;13424;48.424;11.258;2023-09-18T05:46:30;17.15;;;13.60;;
25525;SDS011;13424;48.424;11.258;2023-09-18T05:49:02;18.38;;;14.55;;
25525;SDS011;13424;48.424;11.258;2023-09-18T05:51:30;17.75;;;14.10;;
25525;SDS011;13424;48.424;11.258;2023-09-18T05:53:57;16.25;;;12.80;;
25525;SDS011;13424;48.424;11.258;2023-09-18T05:56:23;15.13;;;13.40;;
25525;SDS011;13424;48.424;11.258;2023-09-18T05:58:49;17.77;;;11.98;;
25525;SDS011;13424;48.424;11.258;2023-09-18T06:01:16;16.10;;;11.75;;
25525;SDS011;13424;48.424;11.258;2023-09-18T06:06:51;14.25;;;10.82;;
25525;SDS011;13424;48.424;11.258;2023-09-18T06:09:17;12.23;;;10.95;;
25525;SDS011;13424;48.424;11.258;2023-09-18T06:11:43;15.73;;;11.27;;
25525;SDS011;13424;48.424;11.258;2023-09-18T06:14:10;12.27;;;10.38;;
25525;SDS011;13424;48.424;11.258;2023-09-18T06:16:36;15.82;;;11.43;;
25525;SDS011;13424;48.424;11.258;2023-09-18T06:22:47;19.63;;;11.35;;
25525;SDS011;13424;48.424;11.258;2023-09-18T06:25:13;21.23;;;11.38;;
25525;SDS011;13424;48.424;11.258;2023-09-18T06:27:41;14.27;;;11.05;;
25525;SDS011;13424;48.424;11.258;2023-09-18T06:30:07;12.65;;;10.38;;
25525;SDS011;13424;48.424;11.258;2023-09-18T06:32:35;12.63;;;11.13;;
25525;SDS011;13424;48.424;11.258;2023-09-18T06:35:04;12.45;;;11.18;;
25525;SDS011;13424;48.424;11.258;2023-09-18T06:37:31;13.88;;;10.48;;
25525;SDS011;13424;48.424;11.258;2023-09-18T06:39:57;11.73;;;10.15;;
25525;SDS011;13424;48.424;11.258;2023-09-18T06:42:23;12.07;;;10.40;;
25525;SDS011;13424;48.424;11.258;2023-09-18T06:44:56;13.15;;;10.00;;
25525;SDS011;13424;48.424;11.258;2023-09-18T06:47:22;12.38;;;10.48;;
25525;SDS011;13424;48.424;11.258;2023-09-18T06:49:50;12.55;;;9.57;;
25525;SDS011;13424;48.424;11.258;2023-09-18T06:52:55;12.50;;;10.27;;
25525;SDS011;13424;48.424;11.258;2023-09-18T06:55:21;15.65;;;11.15;;
25525;SDS011;13424;48.424;11.258;2023-09-18T06:57:47;12.43;;;10.98;;
25525;SDS011;13424;48.424;11.258;2023-09-18T07:00:16;14.45;;;11.10;;
25525;SDS011;13424;48.424;11.258;2023-09-18T07:02:43;11.27;;;10.07;;
25525;SDS011;13424;48.424;11.258;2023-09-18T07:05:09;11.40;;;9.73;;
25525;SDS011;13424;48.424;11.258;2023-09-18T07:07:35;12.63;;;10.82;;
25525;SDS011;13424;48.424;11.258;2023-09-18T07:10:01;11.80;;;9.95;;
25525;SDS011;13424;48.424;11.258;2023-09-18T07:12:28;15.52;;;10.85;;
25525;SDS011;13424;48.424;11.258;2023-09-18T07:15:31;12.30;;;10.10;;
25525;SDS011;13424;48.424;11.258;2023-09-18T07:17:57;11.63;;;10.43;;
25525;SDS011;13424;48.424;11.258;2023-09-18T07:20:23;12.25;;;10.95;;
25525;SDS011;13424;48.424;11.258;2023-09-18T07:22:49;12.02;;;9.93;;
25525;SDS011;13424;48.424;11.258;2023-09-18T07:25:17;11.07;;;9.65;;
25525;SDS011;13424;48.424;11.258;2023-09-18T07:27:43;12.10;;;10.80;;
25525;SDS011;13424;48.424;11.258;2023-09-18T07:30:13;14.63;;;10.15;;
25525;SDS011;13424;48.424;11.258;2023-09-18T07:32:45;11.35;;;9.60;;
25525;SDS011;13424;48.424;11.258;2023-09-18T07:35:11;12.48;;;10.93;;
25525;SDS011;13424;48.424;11.258;2023-09-18T07:37:39;14.07;;;9.90;;
25525;SDS011;13424;48.424;11.258;2023-09-18T07:40:05;10.63;;;9.32;;
25525;SDS011;13424;48.424;11.258;2023-09-18T07:42:32;9.95;;;8.98;;
25525;SDS011;13424;48.424;11.258;2023-09-18T07:44:59;10.82;;;9.68;;
25525;SDS011;13424;48.424;11.258;2023-09-18T07:47:25;9.77;;;8.77;;
25525;SDS011;13424;48.424;11.258;2023-09-18T07:49:51;12.25;;;8.93;;
25525;SDS011;13424;48.424;11.258;2023-09-18T07:52:19;10.38;;;9.27;;
25525;SDS011;13424;48.424;11.258;2023-09-18T07:54:45;10.13;;;9.10;;
25525;SDS011;13424;48.424;11.258;2023-09-18T07:57:11;10.15;;;8.70;;
25525;SDS011;13424;48.424;11.258;2023-09-18T07:59:38;11.15;;;9.23;;
25525;SDS011;13424;48.424;11.258;2023-09-18T08:02:07;9.57;;;8.07;;
25525;SDS011;13424;48.424;11.258;2023-09-18T08:04:35;10.25;;;9.20;;
25525;SDS011;13424;48.424;11.258;2023-09-18T08:07:01;12.95;;;9.43;;
25525;SDS011;13424;48.424;11.258;2023-09-18T08:09:27;11.95;;;8.45;;
25525;SDS011;13424;48.424;11.258;2023-09-18T08:11:54;8.95;;;8.05;;
25525;SDS011;13424;48.424;11.258;2023-09-18T08:14:21;10.38;;;8.38;;
25525;SDS011;13424;48.424;11.258;2023-09-18T08:16:47;10.38;;;8.38;;
25525;SDS011;13424;48.424;11.258;2023-09-18T08:19:22;10.25;;;8.80;;
25525;SDS011;13424;48.424;11.258;2023-09-18T08:25:28;9.02;;;8.07;;
25525;SDS011;13424;48.424;11.258;2023-09-18T08:27:54;12.23;;;8.35;;
25525;SDS011;13424;48.424;11.258;2023-09-18T08:30:20;14.63;;;8.85;;
25525;SDS011;13424;48.424;11.258;2023-09-18T08:32:46;11.93;;;8.77;;
25525;SDS011;13424;48.424;11.258;2023-09-18T08:35:12;12.43;;;8.48;;
25525;SDS011;13424;48.424;11.258;2023-09-18T08:37:42;12.32;;;8.18;;
25525;SDS011;13424;48.424;11.258;2023-09-18T08:40:12;13.30;;;8.57;;
25525;SDS011;13424;48.424;11.258;2023-09-18T08:42:41;8.73;;;7.30;;
25525;SDS011;13424;48.424;11.258;2023-09-18T08:45:16;15.05;;;8.73;;
25525;SDS011;13424;48.424;11.258;2023-09-18T08:47:52;14.70;;;7.72;;
25525;SDS011;13424;48.424;11.258;2023-09-18T08:50:20;11.35;;;7.43;;
25525;SDS011;13424;48.424;11.258;2023-09-18T08:52:47;11.85;;;6.60;;
25525;SDS011;13424;48.424;11.258;2023-09-18T08:55:14;11.85;;;6.20;;
25525;SDS011;13424;48.424;11.258;2023-09-18T08:57:41;12.20;;;7.20;;
25525;SDS011;13424;48.424;11.258;2023-09-18T09:00:10;11.63;;;7.25;;
25525;SDS011;13424;48.424;11.258;2023-09-18T09:02:43;12.07;;;6.13;;
25525;SDS011;13424;48.424;11.258;2023-09-18T09:05:10;13.60;;;6.63;;
25525;SDS011;13424;48.424;11.258;2023-09-18T09:07:36;10.45;;;6.55;;
25525;SDS011;13424;48.424;11.258;2023-09-18T09:10:04;10.85;;;6.38;;
25525;SDS011;13424;48.424;11.258;2023-09-18T09:18:49;13.18;;;7.03;;
25525;SDS011;13424;48.424;11.258;2023-09-18T09:21:16;13.57;;;7.10;;
25525;SDS011;13424;48.424;11.258;2023-09-18T09:23:53;10.23;;;5.97;;
25525;SDS011;13424;48.424;11.258;2023-09-18T09:26:22;15.75;;;6.00;;
25525;SDS011;13424;48.424;11.258;2023-09-18T09:28:48;10.38;;;5.93;;
25525;SDS011;13424;48.424;11.258;2023-09-18T09:31:28;10.75;;;6.10;;
25525;SDS011;13424;48.424;11.258;2023-09-18T09:33:55;18.60;;;5.82;;
25525;SDS011;13424;48.424;11.258;2023-09-18T09:36:23;12.73;;;5.10;;
25525;SDS011;13424;48.424;11.258;2023-09-18T09:38:55;7.60;;;4.93;;
25525;SDS011;13424;48.424;11.258;2023-09-18T09:41:25;11.27;;;5.75;;
25525;SDS011;13424;48.424;11.258;2023-09-18T09:43:53;8.63;;;5.07;;
25525;SDS011;13424;48.424;11.258;2023-09-18T09:46:21;12.07;;;5.78;;
25525;SDS011;13424;48.424;11.258;2023-09-18T09:49:05;12.07;;;5.30;;
25525;SDS011;13424;48.424;11.258;2023-09-18T09:51:33;12.20;;;4.82;;
25525;SDS011;13424;48.424;11.258;2023-09-18T09:54:02;13.55;;;5.70;;
25525;SDS011;13424;48.424;11.258;2023-09-18T09:56:42;8.23;;;5.60;;
25525;SDS011;13424;48.424;11.258;2023-09-18T09:59:14;13.77;;;4.90;;
25525;SDS011;13424;48.424;11.258;2023-09-18T10:01:41;13.00;;;4.55;;
25525;SDS011;13424;48.424;11.258;2023-09-18T10:04:14;12.80;;;4.95;;
25525;SDS011;13424;48.424;11.258;2023-09-18T10:06:48;13.90;;;4.90;;
25525;SDS011;13424;48.424;11.258;2023-09-18T10:09:21;9.48;;;4.57;;
25525;SDS011;13424;48.424;11.258;2023-09-18T10:11:51;12.73;;;5.15;;
25525;SDS011;13424;48.424;11.258;2023-09-18T10:14:25;11.85;;;4.88;;
25525;SDS011;13424;48.424;11.258;2023-09-18T10:16:59;9.93;;;4.18;;
25525;SDS011;13424;48.424;11.258;2023-09-18T10:19:54;9.70;;;3.40;;
25525;SDS011;13424;48.424;11.258;2023-09-18T10:22:38;12.23;;;3.78;;
25525;SDS011;13424;48.424;11.258;2023-09-18T10:27:51;13.38;;;3.53;;
25525;SDS011;13424;48.424;11.258;2023-09-18T10:30:24;12.65;;;3.80;;
25525;SDS011;13424;48.424;11.258;2023-09-18T10:32:52;11.18;;;4.45;;
25525;SDS011;13424;48.424;11.258;2023-09-18T10:35:19;9.98;;;3.38;;
25525;SDS011;13424;48.424;11.258;2023-09-18T10:37:46;14.52;;;4.30;;
25525;SDS011;13424;48.424;11.258;2023-09-18T10:40:16;10.80;;;3.83;;
25525;SDS011;13424;48.424;11.258;2023-09-18T10:42:46;11.45;;;3.83;;
25525;SDS011;13424;48.424;11.258;2023-09-18T10:45:15;9.43;;;3.70;;
25525;SDS011;13424;48.424;11.258;2023-09-18T10:47:44;9.32;;;3.20;;
25525;SDS011;13424;48.424;11.258;2023-09-18T10:50:22;13.07;;;3.65;;
25525;SDS011;13424;48.424;11.258;2023-09-18T10:52:50;16.65;;;4.00;;
25525;SDS011;13424;48.424;11.258;2023-09-18T10:55:16;17.67;;;4.05;;
25525;SDS011;13424;48.424;11.258;2023-09-18T10:57:50;14.52;;;3.30;;
25525;SDS011;13424;48.424;11.258;2023-09-18T11:00:18;12.02;;;3.65;;
25525;SDS011;13424;48.424;11.258;2023-09-18T11:02:50;7.35;;;2.92;;
25525;SDS011;13424;48.424;11.258;2023-09-18T11:05:30;12.73;;;4.43;;
25525;SDS011;13424;48.424;11.258;2023-09-18T11:11:20;10.70;;;2.75;;
25525;SDS011;13424;48.424;11.258;2023-09-18T11:13:52;9.00;;;3.70;;
25525;SDS011;13424;48.424;11.258;2023-09-18T11:21:27;8.50;;;3.20;;
25525;SDS011;13424;48.424;11.258;2023-09-18T11:24:02;7.65;;;3.30;;
25525;SDS011;13424;48.424;11.258;2023-09-18T11:26:34;8.27;;;2.67;;
25525;SDS011;13424;48.424;11.258;2023-09-18T11:29:02;8.23;;;3.40;;
25525;SDS011;13424;48.424;11.258;2023-09-18T11:31:45;12.23;;;3.17;;
25525;SDS011;13424;48.424;11.258;2023-09-18T11:34:29;7.10;;;2.85;;
25525;SDS011;13424;48.424;11.258;2023-09-18T11:37:19;11.30;;;3.20;;
25525;SDS011;13424;48.424;11.258;2023-09-18T11:39:51;9.10;;;3.47;;
25525;SDS011;13424;48.424;11.258;2023-09-18T11:42:20;7.40;;;2.60;;
25525;SDS011;13424;48.424;11.258;2023-09-18T11:44:52;7.78;;;3.47;;
25525;SDS011;13424;48.424;11.258;2023-09-18T11:47:19;11.80;;;3.28;;
25525;SDS011;13424;48.424;11.258;2023-09-18T11:49:54;10.77;;;3.28;;
25525;SDS011;13424;48.424;11.258;2023-09-18T11:52:27;8.07;;;2.80;;
25525;SDS011;13424;48.424;11.258;2023-09-18T11:54:57;12.63;;;3.10;;
25525;SDS011;13424;48.424;11.258;2023-09-18T11:57:25;14.20;;;2.45;;
25525;SDS011;13424;48.424;11.258;2023-09-18T11:59:52;9.35;;;3.08;;
25525;SDS011;13424;48.424;11.258;2023-09-18T12:02:26;9.30;;;3.20;;
25525;SDS011;13424;48.424;11.258;2023-09-18T12:04:54;11.98;;;2.72;;
25525;SDS011;13424;48.424;11.258;2023-09-18T12:07:33;9.40;;;2.67;;
25525;SDS011;13424;48.424;11.258;2023-09-18T12:09:59;7.32;;;2.50;;
25525;SDS011;13424;48.424;11.258;2023-09-18T12:12:30;6.57;;;2.15;;
25525;SDS011;13424;48.424;11.258;2023-09-18T12:14:56;6.72;;;2.75;;
25525;SDS011;13424;48.424;11.258;2023-09-18T12:17:22;8.65;;;3.25;;
25525;SDS011;13424;48.424;11.258;2023-09-18T12:19:52;11.48;;;3.40;;
25525;SDS011;13424;48.424;11.258;2023-09-18T12:25:49;7.78;;;2.72;;
25525;SDS011;13424;48.424;11.258;2023-09-18T12:28:25;8.45;;;2.95;;
25525;SDS011;13424;48.424;11.258;2023-09-18T12:30:56;7.40;;;2.67;;
25525;SDS011;13424;48.424;11.258;2023-09-18T12:33:24;4.65;;;2.60;;
25525;SDS011;13424;48.424;11.258;2023-09-18T12:35:50;7.78;;;2.58;;
25525;SDS011;13424;48.424;11.258;2023-09-18T12:38:18;4.40;;;2.83;;
25525;SDS011;13424;48.424;11.258;2023-09-18T12:41:10;3.90;;;2.47;;
25525;SDS011;13424;48.424;11.258;2023-09-18T12:43:38;5.45;;;3.00;;
25525;SDS011;13424;48.424;11.258;2023-09-18T12:46:07;6.13;;;2.10;;
25525;SDS011;13424;48.424;11.258;2023-09-18T12:48:37;7.90;;;2.83;;
25525;SDS011;13424;48.424;11.258;2023-09-18T12:51:11;5.97;;;2.28;;
25525;SDS011;13424;48.424;11.258;2023-09-18T12:57:32;5.05;;;2.60;;
25525;SDS011;13424;48.424;11.258;2023-09-18T12:59:58;4.10;;;2.28;;
25525;SDS011;13424;48.424;11.258;2023-09-18T13:02:24;9.35;;;2.92;;
25525;SDS011;13424;48.424;11.258;2023-09-18T13:04:55;4.78;;;2.65;;
25525;SDS011;13424;48.424;11.258;2023-09-18T13:07:23;4.13;;;2.15;;
25525;SDS011;13424;48.424;11.258;2023-09-18T13:10:08;3.30;;;2.28;;
25525;SDS011;13424;48.424;11.258;2023-09-18T13:12:51;6.03;;;2.45;;
25525;SDS011;13424;48.424;11.258;2023-09-18T13:15:25;7.20;;;2.45;;
25525;SDS011;13424;48.424;11.258;2023-09-18T13:17:54;4.35;;;2.30;;
25525;SDS011;13424;48.424;11.258;2023-09-18T13:20:25;4.68;;;2.35;;
25525;SDS011;13424;48.424;11.258;2023-09-18T13:22:58;5.03;;;2.40;;
25525;SDS011;13424;48.424;11.258;2023-09-18T13:25:38;8.88;;;2.25;;
25525;SDS011;13424;48.424;11.258;2023-09-18T13:28:09;3.35;;;2.00;;
25525;SDS011;13424;48.424;11.258;2023-09-18T13:30:38;4.70;;;2.40;;
25525;SDS011;13424;48.424;11.258;2023-09-18T13:33:08;6.50;;;2.30;;
25525;SDS011;13424;48.424;11.258;2023-09-18T13:35:39;3.95;;;3.33;;
25525;SDS011;13424;48.424;11.258;2023-09-18T13:38:09;4.00;;;2.65;;
25525;SDS011;13424;48.424;11.258;2023-09-18T13:45:01;8.13;;;2.90;;
25525;SDS011;13424;48.424;11.258;2023-09-18T13:47:30;6.03;;;2.80;;
25525;SDS011;13424;48.424;11.258;2023-09-18T13:49:56;2.42;;;1.90;;
25525;SDS011;13424;48.424;11.258;2023-09-18T13:52:24;5.50;;;2.63;;
25525;SDS011;13424;48.424;11.258;2023-09-18T13:57:21;5.55;;;2.33;;
25525;SDS011;13424;48.424;11.258;2023-09-18T13:59:48;3.33;;;2.30;;
25525;SDS011;13424;48.424;11.258;2023-09-18T14:02:15;3.97;;;2.55;;
25525;SDS011;13424;48.424;11.258;2023-09-18T14:04:42;3.15;;;2.00;;
25525;SDS011;13424;48.424;11.258;2023-09-18T14:07:10;4.05;;;2.13;;
25525;SDS011;13424;48.424;11.258;2023-09-18T14:09:37;4.30;;;1.70;;
25525;SDS011;13424;48.424;11.258;2023-09-18T14:12:04;8.00;;;2.10;;
25525;SDS011;13424;48.424;11.258;2023-09-18T14:14:33;2.80;;;2.00;;
25525;SDS011;13424;48.424;11.258;2023-09-18T14:17:02;5.38;;;2.22;;
25525;SDS011;13424;48.424;11.258;2023-09-18T14:19:29;9.65;;;2.20;;
25525;SDS011;13424;48.424;11.258;2023-09-18T14:21:55;2.88;;;1.90;;
25525;SDS011;13424;48.424;11.258;2023-09-18T14:24:22;3.78;;;1.58;;
25525;SDS011;13424;48.424;11.258;2023-09-18T14:26:53;3.05;;;2.15;;
25525;SDS011;13424;48.424;11.258;2023-09-18T14:29:20;4.40;;;1.90;;
25525;SDS011;13424;48.424;11.258;2023-09-18T14:31:46;4.45;;;2.08;;
25525;SDS011;13424;48.424;11.258;2023-09-18T14:34:12;8.20;;;2.10;;
25525;SDS011;13424;48.424;11.258;2023-09-18T14:36:39;4.75;;;2.10;;
25525;SDS011;13424;48.424;11.258;2023-09-18T14:39:06;11.00;;;2.97;;
25525;SDS011;13424;48.424;11.258;2023-09-18T14:41:35;12.07;;;2.47;;
25525;SDS011;13424;48.424;11.258;2023-09-18T14:44:03;7.93;;;3.95;;
25525;SDS011;13424;48.424;11.258;2023-09-18T14:46:31;4.55;;;2.88;;
25525;SDS011;13424;48.424;11.258;2023-09-18T14:49:00;5.55;;;2.47;;
25525;SDS011;13424;48.424;11.258;2023-09-18T14:51:27;3.60;;;2.10;;
25525;SDS011;13424;48.424;11.258;2023-09-18T14:53:54;3.90;;;2.00;;
25525;SDS011;13424;48.424;11.258;2023-09-18T14:56:21;3.45;;;1.77;;
25525;SDS011;13424;48.424;11.258;2023-09-18T14:58:47;8.65;;;2.08;;
25525;SDS011;13424;48.424;11.258;2023-09-18T15:01:13;3.28;;;2.10;;
25525;SDS011;13424;48.424;11.258;2023-09-18T15:03:40;3.78;;;1.98;;
25525;SDS011;13424;48.424;11.258;2023-09-18T15:06:07;4.88;;;1.83;;
25525;SDS011;13424;48.424;11.258;2023-09-18T15:08:58;4.40;;;1.95;;
25525;SDS011;13424;48.424;11.258;2023-09-18T15:13:50;4.03;;;1.80;;
25525;SDS011;13424;48.424;11.258;2023-09-18T15:16:16;6.47;;;2.13;;
25525;SDS011;13424;48.424;11.258;2023-09-18T15:18:42;2.75;;;2.05;;
25525;SDS011;13424;48.424;11.258;2023-09-18T15:21:09;4.18;;;2.47;;
25525;SDS011;13424;48.424;11.258;2023-09-18T15:23:35;4.45;;;2.25;;
25525;SDS011;13424;48.424;11.258;2023-09-18T15:26:02;5.28;;;2.17;;
25525;SDS011;13424;48.424;11.258;2023-09-18T15:28:28;3.42;;;2.15;;
25525;SDS011;13424;48.424;11.258;2023-09-18T15:30:55;3.67;;;2.50;;
25525;SDS011;13424;48.424;11.258;2023-09-18T15:33:21;5.93;;;2.30;;
25525;SDS011;13424;48.424;11.258;2023-09-18T15:35:51;2.63;;;2.10;;
25525;SDS011;13424;48.424;11.258;2023-09-18T15:40:46;9.68;;;2.65;;
25525;SDS011;13424;48.424;11.258;2023-09-18T15:43:12;6.03;;;2.40;;